Time;durP1;ratioP1;P1;durP2;ratioP2;P2;SDS_P1;SDS_P2;PMS_P1;PMS_P2;Temp;Humidity;BMP_temperature;BMP_pressure;BME280_temperature;BME280_humidity;BME280_pressure;Samples;Min_cycle;Max_cycle;Signal;HPM_P1;HPM_P2
2023/02/02 00:01:20;;;;;;;5.10;1.95;;;9.40;99.90;;;;;;6217894;23;20004;-83
2023/02/02 00:03:49;;;;;;;7.90;2.03;;;9.40;99.90;;;;;;6218558;23;20078;-82
2023/02/02 00:06:16;;;;;;;6.68;1.95;;;9.40;99.90;;;;;;6220483;23;20001;-82
2023/02/02 00:08:41;;;;;;;6.75;2.05;;;9.30;99.90;;;;;;6219341;23;20005;-83
2023/02/02 00:11:07;;;;;;;4.47;1.45;;;9.30;99.90;;;;;;6218844;23;20028;-83
2023/02/02 00:13:33;;;;;;;6.50;2.30;;;9.30;99.90;;;;;;6220155;23;20425;-83
2023/02/02 00:16:18;;;;;;;5.97;2.08;;;9.30;99.90;;;;;;6219170;23;20009;-83
2023/02/02 00:18:44;;;;;;;3.13;1.42;;;9.30;99.90;;;;;;6219143;23;20013;-84
2023/02/02 00:21:10;;;;;;;5.38;1.70;;;9.30;99.90;;;;;;6219603;23;20015;-83
2023/02/02 00:23:35;;;;;;;6.20;1.92;;;9.30;99.90;;;;;;6219122;23;20044;-84
2023/02/02 00:26:01;;;;;;;5.15;1.88;;;9.30;99.90;;;;;;6219170;23;20378;-83
2023/02/02 00:28:26;;;;;;;5.57;1.90;;;9.30;99.90;;;;;;6218716;23;20056;-83
2023/02/02 00:30:52;;;;;;;8.50;2.40;;;9.30;99.90;;;;;;6220689;23;20100;-82
2023/02/02 00:33:18;;;;;;;5.97;2.20;;;9.20;99.90;;;;;;6218828;23;20087;-83
2023/02/02 00:35:43;;;;;;;3.97;2.00;;;9.20;99.90;;;;;;6220342;23;20001;-83
2023/02/02 00:38:09;;;;;;;6.07;2.30;;;9.20;99.90;;;;;;6220450;23;20421;-83
2023/02/02 00:40:35;;;;;;;4.70;1.50;;;9.20;99.90;;;;;;6218302;23;20004;-83
2023/02/02 00:43:00;;;;;;;4.50;1.60;;;9.20;99.90;;;;;;6218452;23;20080;-82
2023/02/02 00:45:26;;;;;;;4.97;2.17;;;9.20;99.90;;;;;;6218153;23;20008;-80
2023/02/02 00:47:51;;;;;;;3.92;1.70;;;9.30;99.90;;;;;;6219847;23;20001;-79
2023/02/02 00:50:19;;;;;;;5.55;1.95;;;9.30;99.90;;;;;;6220777;23;20007;-79
2023/02/02 00:52:46;;;;;;;4.30;1.80;;;9.30;99.90;;;;;;6220037;23;20005;-79
2023/02/02 00:55:13;;;;;;;3.92;1.75;;;9.30;99.90;;;;;;6220092;23;20032;-79
2023/02/02 00:57:40;;;;;;;5.50;1.50;;;9.30;99.90;;;;;;6218511;23;20031;-79
2023/02/02 01:00:08;;;;;;;4.10;1.65;;;9.20;99.90;;;;;;6220442;23;20011;-79
2023/02/02 01:02:34;;;;;;;3.72;1.63;;;9.20;99.90;;;;;;6220013;23;20035;-79
2023/02/02 01:05:00;;;;;;;4.82;1.60;;;9.20;99.90;;;;;;6220240;23;20434;-79
2023/02/02 01:07:26;;;;;;;7.10;1.88;;;9.30;99.90;;;;;;6220292;23;20000;-79
2023/02/02 01:09:52;;;;;;;4.25;1.70;;;9.30;99.90;;;;;;6218819;23;20005;-83
2023/02/02 01:12:17;;;;;;;5.60;1.67;;;9.20;99.90;;;;;;6218331;23;20008;-83
2023/02/02 01:14:43;;;;;;;4.15;1.60;;;9.20;99.90;;;;;;6219389;23;20008;-84
2023/02/02 01:17:09;;;;;;;5.30;1.55;;;9.20;99.90;;;;;;6220739;23;20430;-84
2023/02/02 01:19:34;;;;;;;3.60;1.52;;;9.20;99.90;;;;;;6221235;23;20012;-83
2023/02/02 01:22:00;;;;;;;5.47;1.48;;;9.20;99.90;;;;;;6221114;23;20377;-83
2023/02/02 01:24:26;;;;;;;4.28;1.73;;;9.20;99.90;;;;;;6221103;23;20315;-83
2023/02/02 01:26:51;;;;;;;4.20;1.42;;;9.20;99.90;;;;;;6222446;23;20053;-83
2023/02/02 01:29:17;;;;;;;5.90;1.80;;;9.20;99.90;;;;;;6222309;23;20330;-84
2023/02/02 01:31:43;;;;;;;3.50;1.10;;;9.20;99.90;;;;;;6220221;23;20020;-84
2023/02/02 01:34:08;;;;;;;2.97;1.02;;;9.20;99.90;;;;;;6220706;23;20005;-83
2023/02/02 01:36:34;;;;;;;5.05;1.30;;;9.10;99.90;;;;;;6222275;23;20024;-82
2023/02/02 01:39:00;;;;;;;6.93;1.40;;;9.20;99.90;;;;;;6222317;23;20004;-82
2023/02/02 01:41:26;;;;;;;5.28;1.17;;;9.20;99.90;;;;;;6222031;23;20028;-82
2023/02/02 01:43:58;;;;;;;5.25;1.30;;;9.20;99.90;;;;;;6220405;23;20516;-82
2023/02/02 01:46:26;;;;;;;4.43;1.38;;;9.20;99.90;;;;;;6220446;23;20005;-86
2023/02/02 01:49:12;;;;;;;4.15;1.40;;;9.20;99.90;;;;;;6222284;23;20766;-86
2023/02/02 01:51:58;;;;;;;5.35;1.50;;;9.10;99.90;;;;;;6222287;23;19997;-86
2023/02/02 01:54:30;;;;;;;3.85;1.08;;;9.10;99.90;;;;;;6222079;23;19997;-86
2023/02/02 01:57:24;;;;;;;4.65;1.52;;;9.10;99.90;;;;;;6220552;23;20418;-80
2023/02/02 01:59:52;;;;;;;2.50;1.13;;;9.10;99.90;;;;;;6221867;23;20001;-79
2023/02/02 02:02:18;;;;;;;5.07;0.77;;;9.20;99.90;;;;;;6220670;23;20028;-79
2023/02/02 02:04:44;;;;;;;3.92;1.00;;;9.10;99.90;;;;;;6220251;23;20004;-79
2023/02/02 02:07:11;;;;;;;3.38;1.05;;;9.10;99.90;;;;;;6220307;23;20011;-79
2023/02/02 02:09:36;;;;;;;4.13;1.30;;;9.20;99.90;;;;;;6221921;23;20119;-79
2023/02/02 02:12:02;;;;;;;2.63;1.10;;;9.20;99.90;;;;;;6220680;23;20004;-80
2023/02/02 02:17:12;;;;;;;3.55;1.17;;;9.20;99.90;;;;;;6221616;23;20016;-80
2023/02/02 02:26:41;;;;;;;4.68;1.25;;;9.20;99.90;;;;;;6221444;23;20135;-84
2023/02/02 02:29:13;;;;;;;3.50;1.35;;;9.20;99.90;;;;;;6218200;23;20000;-84
2023/02/02 02:32:14;;;;;;;3.70;1.10;;;9.10;99.90;;;;;;6221499;23;20008;-84
2023/02/02 02:35:20;;;;;;;2.83;1.17;;;9.10;99.90;;;;;;6187941;23;20453;-84
2023/02/02 02:37:53;;;;;;;6.32;1.35;;;9.10;99.90;;;;;;6221825;23;20001;-84
2023/02/02 02:40:35;;;;;;;3.13;0.90;;;9.10;99.90;;;;;;6221671;23;20028;-84
2023/02/02 02:43:11;;;;;;;4.07;1.15;;;9.10;99.90;;;;;;6220160;23;20236;-84
2023/02/02 02:45:38;;;;;;;4.28;0.80;;;9.10;99.90;;;;;;6219597;23;20005;-79
2023/02/02 02:48:03;;;;;;;3.60;0.93;;;9.20;99.90;;;;;;6220027;23;20132;-79
2023/02/02 02:50:29;;;;;;;2.15;0.85;;;9.10;99.90;;;;;;6221560;23;19997;-79
2023/02/02 02:53:08;;;;;;;2.97;1.30;;;9.20;99.90;;;;;;6220227;23;20001;-79
2023/02/02 02:55:47;;;;;;;3.53;1.33;;;9.10;99.90;;;;;;6219697;23;20009;-82
2023/02/02 02:58:20;;;;;;;3.38;0.93;;;9.10;99.90;;;;;;6219436;23;20008;-79
2023/02/02 03:01:28;;;;;;;2.90;0.93;;;9.10;99.90;;;;;;6221527;23;20005;-79
2023/02/02 03:04:21;;;;;;;2.03;1.00;;;9.10;99.90;;;;;;6216690;23;20388;-83
2023/02/02 03:07:31;;;;;;;3.03;0.80;;;9.10;99.90;;;;;;6219770;23;20012;-83
2023/02/02 03:10:00;;;;;;;3.05;0.85;;;9.20;99.90;;;;;;6186235;23;20004;-83
2023/02/02 03:12:25;;;;;;;2.47;0.85;;;9.30;99.90;;;;;;6219767;23;20338;-83
2023/02/02 03:14:51;;;;;;;1.83;0.73;;;9.30;99.90;;;;;;6219471;23;20008;-83
2023/02/02 03:17:17;;;;;;;4.63;0.85;;;9.30;99.90;;;;;;6221057;23;20008;-83
2023/02/02 03:19:42;;;;;;;3.63;1.10;;;9.40;99.90;;;;;;6219693;23;20020;-83
2023/02/02 03:22:08;;;;;;;2.72;0.75;;;9.30;99.90;;;;;;6219730;23;20080;-83
2023/02/02 03:24:34;;;;;;;3.90;1.38;;;9.30;99.90;;;;;;6219678;23;20008;-82
2023/02/02 03:26:59;;;;;;;4.53;1.17;;;9.30;99.90;;;;;;6221160;23;19996;-83
2023/02/02 03:29:26;;;;;;;3.08;1.30;;;9.30;99.90;;;;;;6220731;23;20004;-83
2023/02/02 03:31:52;;;;;;;6.45;1.20;;;9.20;99.90;;;;;;6219113;23;20031;-82
2023/02/02 03:34:17;;;;;;;6.78;1.85;;;9.20;99.90;;;;;;6221245;23;20430;-83
2023/02/02 03:36:43;;;;;;;3.30;1.38;;;9.20;99.90;;;;;;6221047;23;19996;-82
2023/02/02 03:39:09;;;;;;;3.38;1.10;;;9.10;99.90;;;;;;6218628;23;20005;-83
2023/02/02 03:41:34;;;;;;;3.65;1.30;;;9.10;99.90;;;;;;6219228;23;20046;-83
2023/02/02 03:44:00;;;;;;;3.35;1.20;;;9.10;99.90;;;;;;6218922;23;20000;-83
2023/02/02 03:46:26;;;;;;;4.57;1.63;;;9.10;99.90;;;;;;6219085;23;20008;-83
2023/02/02 03:48:52;;;;;;;2.72;1.02;;;9.00;99.90;;;;;;6219225;23;20007;-83
2023/02/02 03:51:17;;;;;;;3.97;1.20;;;9.00;99.90;;;;;;6220896;23;20426;-84
2023/02/02 03:53:43;;;;;;;5.13;1.45;;;9.10;99.90;;;;;;6219034;23;20067;-83
2023/02/02 03:56:09;;;;;;;4.45;1.40;;;9.00;99.90;;;;;;6221087;23;20024;-83
2023/02/02 03:58:35;;;;;;;3.20;1.10;;;9.00;99.90;;;;;;6220528;23;20006;-83
2023/02/02 04:01:05;;;;;;;4.60;1.42;;;9.00;99.90;;;;;;6218989;23;20038;-83
2023/02/02 04:03:31;;;;;;;6.50;1.65;;;9.00;99.90;;;;;;6219176;23;20011;-83
2023/02/02 04:05:57;;;;;;;5.97;1.52;;;9.00;99.90;;;;;;6218604;23;20005;-83
2023/02/02 04:08:23;;;;;;;3.83;1.17;;;9.00;99.90;;;;;;6218776;23;20036;-85
2023/02/02 04:10:48;;;;;;;5.38;1.70;;;9.00;99.90;;;;;;6219491;23;20034;-86
2023/02/02 04:13:14;;;;;;;3.72;1.50;;;9.00;99.90;;;;;;6219079;23;20000;-86
2023/02/02 04:15:40;;;;;;;4.28;1.20;;;9.00;99.90;;;;;;6219127;23;20060;-86
2023/02/02 04:18:05;;;;;;;3.80;1.38;;;9.00;99.90;;;;;;6219217;23;20011;-86
2023/02/02 04:20:31;;;;;;;4.72;1.30;;;8.90;99.90;;;;;;6218892;23;20005;-85
2023/02/02 04:22:57;;;;;;;4.55;1.38;;;9.00;99.90;;;;;;6220741;23;20010;-85
2023/02/02 04:25:22;;;;;;;3.58;1.33;;;9.00;99.90;;;;;;6220584;23;20009;-85
2023/02/02 04:27:48;;;;;;;3.67;1.42;;;9.00;99.90;;;;;;6219285;23;20008;-85
2023/02/02 04:30:13;;;;;;;3.78;1.27;;;9.00;99.90;;;;;;6220365;23;20039;-81
2023/02/02 04:32:39;;;;;;;3.70;1.33;;;9.00;99.90;;;;;;6220528;23;20008;-78
2023/02/02 04:35:05;;;;;;;2.63;0.95;;;9.00;99.90;;;;;;6219162;23;20000;-78
2023/02/02 04:37:31;;;;;;;3.05;1.17;;;9.00;99.90;;;;;;6220727;23;20001;-78
2023/02/02 04:39:57;;;;;;;4.43;1.27;;;9.10;99.90;;;;;;6220174;23;20008;-78
2023/02/02 04:42:22;;;;;;;2.72;1.10;;;9.10;99.90;;;;;;6219973;23;20032;-79
2023/02/02 04:44:48;;;;;;;3.55;1.45;;;9.10;99.90;;;;;;6218958;23;20341;-83
2023/02/02 04:47:14;;;;;;;3.05;1.30;;;9.10;99.90;;;;;;6218830;23;20007;-83
2023/02/02 04:49:40;;;;;;;3.28;1.10;;;9.10;99.90;;;;;;6218539;23;20042;-82
2023/02/02 04:52:06;;;;;;;3.90;1.23;;;9.10;99.90;;;;;;6220409;23;20003;-83
2023/02/02 04:54:32;;;;;;;3.85;1.55;;;9.10;99.90;;;;;;6218820;23;20342;-84
2023/02/02 04:56:58;;;;;;;5.78;1.48;;;9.10;99.90;;;;;;6218554;23;20004;-81
2023/02/02 04:59:26;;;;;;;3.22;1.20;;;9.10;99.90;;;;;;6218725;23;20068;-82
2023/02/02 05:01:52;;;;;;;5.68;1.80;;;9.10;99.90;;;;;;6218680;23;20015;-81
2023/02/02 05:04:17;;;;;;;4.03;1.00;;;9.10;99.90;;;;;;6220587;23;20032;-81
2023/02/02 05:06:43;;;;;;;4.47;1.25;;;9.10;99.90;;;;;;6220303;23;20008;-81
2023/02/02 05:09:10;;;;;;;2.58;0.90;;;9.00;99.90;;;;;;6218588;23;20008;-83
2023/02/02 05:11:37;;;;;;;3.15;1.13;;;9.10;99.90;;;;;;6218715;23;20418;-82
2023/02/02 05:14:04;;;;;;;5.32;1.63;;;9.10;99.90;;;;;;6218784;23;20430;-84
2023/02/02 05:16:29;;;;;;;4.38;1.25;;;9.00;99.90;;;;;;6220227;23;20422;-81
2023/02/02 05:18:56;;;;;;;3.42;1.50;;;9.00;99.90;;;;;;6218609;23;20111;-81
2023/02/02 05:21:23;;;;;;;3.95;1.13;;;9.00;99.90;;;;;;6218736;23;20009;-86
2023/02/02 05:23:48;;;;;;;4.57;1.15;;;9.10;99.90;;;;;;6218783;23;20009;-84
2023/02/02 05:26:25;;;;;;;3.55;0.98;;;9.10;99.90;;;;;;6220051;23;20046;-83
2023/02/02 05:28:51;;;;;;;3.65;0.82;;;9.10;99.90;;;;;;6218132;23;20023;-83
2023/02/02 05:31:18;;;;;;;4.63;1.45;;;9.10;99.90;;;;;;6218389;23;20021;-83
2023/02/02 05:33:44;;;;;;;4.10;1.33;;;9.10;99.90;;;;;;6220158;23;20005;-82
2023/02/02 05:36:10;;;;;;;2.95;1.00;;;9.10;99.90;;;;;;6220103;23;20071;-86
2023/02/02 05:38:35;;;;;;;4.40;1.33;;;9.10;99.90;;;;;;6220304;23;20005;-87
2023/02/02 05:41:01;;;;;;;5.75;1.35;;;9.10;99.90;;;;;;6219012;23;20438;-88
2023/02/02 05:43:29;;;;;;;3.65;1.13;;;9.10;99.90;;;;;;6218372;23;20040;-88
2023/02/02 05:45:55;;;;;;;5.70;1.50;;;9.10;99.90;;;;;;6218971;23;20005;-87
2023/02/02 05:48:21;;;;;;;4.22;1.25;;;9.20;99.90;;;;;;6220579;23;20000;-87
2023/02/02 05:50:56;;;;;;;3.97;1.33;;;9.10;99.90;;;;;;6219201;23;20005;-88
2023/02/02 05:53:23;;;;;;;5.07;1.15;;;9.20;99.90;;;;;;6218477;23;20008;-87
2023/02/02 05:55:48;;;;;;;3.45;1.02;;;9.10;99.90;;;;;;6218530;23;20028;-88
2023/02/02 05:58:14;;;;;;;2.58;1.15;;;9.20;99.90;;;;;;6218347;23;20381;-86
2023/02/02 06:00:39;;;;;;;4.75;1.35;;;9.20;99.90;;;;;;6219914;23;20000;-83
2023/02/02 06:03:05;;;;;;;4.30;1.27;;;9.20;99.90;;;;;;6221040;23;20001;-82
2023/02/02 06:05:31;;;;;;;3.95;1.45;;;9.10;99.90;;;;;;6221799;23;20000;-82
2023/02/02 06:07:56;;;;;;;3.28;0.90;;;9.10;99.90;;;;;;6220575;23;20421;-82
2023/02/02 06:10:22;;;;;;;3.38;1.33;;;9.10;99.90;;;;;;6220174;23;20000;-82
2023/02/02 06:12:47;;;;;;;2.80;1.23;;;9.10;99.90;;;;;;6220337;23;20000;-87
2023/02/02 06:15:13;;;;;;;3.67;1.00;;;9.10;99.90;;;;;;6222143;23;20008;-86
2023/02/02 06:17:39;;;;;;;4.53;1.30;;;9.00;99.90;;;;;;6221907;23;20083;-85
2023/02/02 06:20:05;;;;;;;2.42;1.10;;;9.10;99.90;;;;;;6220487;23;20061;-86
2023/02/02 06:22:31;;;;;;;5.82;1.40;;;9.10;99.90;;;;;;6222568;23;20001;-87
2023/02/02 06:24:57;;;;;;;4.78;1.00;;;9.10;99.90;;;;;;6220476;23;20005;-85
2023/02/02 06:27:24;;;;;;;5.00;1.40;;;9.10;99.90;;;;;;6221422;23;19993;-83
2023/02/02 06:29:50;;;;;;;6.40;1.63;;;9.10;99.90;;;;;;6219258;23;20001;-79
2023/02/02 06:32:15;;;;;;;3.88;0.98;;;9.10;99.90;;;;;;6219866;23;21031;-79
2023/02/02 06:34:41;;;;;;;3.85;1.10;;;9.10;99.90;;;;;;6220494;23;20007;-79
2023/02/02 06:37:06;;;;;;;3.03;1.08;;;9.10;99.90;;;;;;6220919;23;20051;-80
2023/02/02 06:39:32;;;;;;;1.75;0.98;;;9.20;99.90;;;;;;6221139;23;20004;-79
2023/02/02 06:41:57;;;;;;;2.05;0.90;;;9.20;99.90;;;;;;6219786;23;20005;-80
2023/02/02 06:44:23;;;;;;;2.67;1.20;;;9.20;99.90;;;;;;6219694;23;20012;-80
2023/02/02 06:46:49;;;;;;;2.83;1.10;;;9.20;99.90;;;;;;6221593;23;20434;-84
2023/02/02 06:49:14;;;;;;;3.35;1.02;;;9.20;99.90;;;;;;6220110;23;20078;-84
2023/02/02 06:51:40;;;;;;;6.63;1.33;;;9.10;99.90;;;;;;6220030;23;19997;-84
2023/02/02 06:54:06;;;;;;;3.60;1.30;;;9.10;99.90;;;;;;6219818;23;20500;-83
2023/02/02 06:56:32;;;;;;;2.40;1.30;;;9.10;99.90;;;;;;6221201;23;20306;-83
2023/02/02 06:58:57;;;;;;;3.42;1.23;;;9.10;99.90;;;;;;6220021;23;20011;-84
2023/02/02 07:01:23;;;;;;;3.78;1.10;;;9.20;99.90;;;;;;6219646;23;20095;-84
2023/02/02 07:03:49;;;;;;;5.25;1.23;;;9.20;99.90;;;;;;6220160;23;20047;-84
2023/02/02 07:06:21;;;;;;;4.50;1.15;;;9.20;99.90;;;;;;6219473;23;20011;-83
2023/02/02 07:08:47;;;;;;;3.75;1.00;;;9.20;99.90;;;;;;6221195;23;20024;-83
2023/02/02 07:11:13;;;;;;;2.30;0.80;;;9.20;99.90;;;;;;6219405;23;20000;-84
2023/02/02 07:13:38;;;;;;;3.33;0.95;;;9.20;99.90;;;;;;6219687;23;20586;-83
2023/02/02 07:16:05;;;;;;;3.03;1.00;;;9.30;99.90;;;;;;6219911;23;20004;-84
2023/02/02 07:18:31;;;;;;;3.70;1.20;;;9.30;99.90;;;;;;6220131;23;20015;-84
2023/02/02 07:21:00;;;;;;;3.05;0.88;;;9.30;99.90;;;;;;6219214;23;20032;-83
2023/02/02 07:23:27;;;;;;;4.13;0.98;;;9.40;99.90;;;;;;6220780;23;20311;-80
2023/02/02 07:26:04;;;;;;;2.00;0.85;;;9.40;99.90;;;;;;6220870;23;20000;-83
2023/02/02 07:28:30;;;;;;;3.10;1.00;;;9.30;99.90;;;;;;6219394;23;20005;-85
2023/02/02 07:30:56;;;;;;;3.38;1.27;;;9.30;99.90;;;;;;6219281;23;20075;-84
2023/02/02 07:33:22;;;;;;;4.47;1.02;;;9.30;99.90;;;;;;6219697;23;20091;-86
2023/02/02 07:35:48;;;;;;;4.82;1.20;;;9.20;99.90;;;;;;6218763;23;20079;-68
2023/02/02 07:38:13;;;;;;;3.75;1.35;;;9.20;99.90;;;;;;6220726;23;20027;-68
2023/02/02 07:40:39;;;;;;;4.03;1.30;;;9.30;99.90;;;;;;6220948;23;20001;-69
2023/02/02 07:43:04;;;;;;;6.40;1.30;;;9.30;99.90;;;;;;6220522;23;20051;-69
2023/02/02 07:45:30;;;;;;;5.63;1.40;;;9.30;99.90;;;;;;6220371;23;20004;-68
2023/02/02 07:47:59;;;;;;;6.38;1.48;;;9.30;99.90;;;;;;6220399;23;20008;-68
2023/02/02 07:50:27;;;;;;;2.63;1.15;;;9.30;99.90;;;;;;6220738;23;20004;-68
2023/02/02 07:52:53;;;;;;;3.95;1.15;;;9.30;99.90;;;;;;6220397;23;20028;-68
2023/02/02 07:55:19;;;;;;;3.70;1.30;;;9.30;99.90;;;;;;6220649;23;20000;-68
2023/02/02 07:57:45;;;;;;;4.15;1.35;;;9.30;99.90;;;;;;6220496;23;20004;-68
2023/02/02 08:00:11;;;;;;;4.97;1.73;;;9.30;99.90;;;;;;6220523;23;20008;-68
2023/02/02 08:02:37;;;;;;;3.60;1.23;;;9.30;99.90;;;;;;6220450;23;20008;-68
2023/02/02 08:05:05;;;;;;;3.78;1.73;;;9.20;99.90;;;;;;6220189;23;20000;-67
2023/02/02 08:07:33;;;;;;;4.88;1.40;;;9.20;99.90;;;;;;6220389;23;20011;-67
2023/02/02 08:09:58;;;;;;;3.28;1.45;;;9.20;99.90;;;;;;6220040;23;19996;-67
2023/02/02 08:12:25;;;;;;;3.42;1.23;;;9.30;99.90;;;;;;6219108;23;20445;-67
2023/02/02 08:14:51;;;;;;;4.40;1.30;;;9.30;99.90;;;;;;6220674;23;20046;-67
2023/02/02 08:17:17;;;;;;;2.42;1.20;;;9.40;99.90;;;;;;6220489;23;20000;-67
2023/02/02 08:19:43;;;;;;;5.63;1.40;;;9.40;99.90;;;;;;6220709;23;20387;-67
2023/02/02 08:22:09;;;;;;;6.15;1.42;;;9.40;99.90;;;;;;6220540;23;20015;-67
2023/02/02 08:24:39;;;;;;;4.57;1.50;;;9.30;99.90;;;;;;6217884;23;20442;-68
2023/02/02 08:27:06;;;;;;;5.03;1.40;;;9.30;99.90;;;;;;6220108;23;20011;-67
2023/02/02 08:29:31;;;;;;;4.65;1.58;;;9.30;99.90;;;;;;6219100;23;20027;-67
2023/02/02 08:31:57;;;;;;;4.78;1.20;;;9.30;99.90;;;;;;6220007;23;20012;-67
2023/02/02 08:34:23;;;;;;;4.15;1.20;;;9.30;99.90;;;;;;6220606;23;20003;-67
2023/02/02 08:36:48;;;;;;;3.90;1.27;;;9.30;99.90;;;;;;6219982;23;20004;-68
2023/02/02 08:39:14;;;;;;;4.85;1.20;;;9.30;99.90;;;;;;6218320;23;20000;-67
2023/02/02 08:41:40;;;;;;;7.60;1.40;;;9.40;99.90;;;;;;6218811;23;20001;-67
2023/02/02 08:44:06;;;;;;;5.72;1.58;;;9.40;99.90;;;;;;6219943;23;20054;-67
2023/02/02 08:46:32;;;;;;;4.20;1.48;;;9.40;99.90;;;;;;6220028;23;20016;-67
2023/02/02 08:48:58;;;;;;;4.80;1.27;;;9.40;99.90;;;;;;6219654;23;19996;-67
2023/02/02 08:51:23;;;;;;;5.50;1.33;;;9.50;99.90;;;;;;6220629;23;20010;-67
2023/02/02 08:53:49;;;;;;;5.32;1.42;;;9.40;99.90;;;;;;6220689;23;20004;-67
2023/02/02 08:56:20;;;;;;;4.82;1.40;;;9.40;99.90;;;;;;6220544;23;20047;-67
2023/02/02 08:58:54;;;;;;;8.63;1.70;;;9.50;99.90;;;;;;6220312;23;20004;-67
2023/02/02 09:01:23;;;;;;;4.68;1.70;;;9.50;99.90;;;;;;6220547;23;20457;-67
2023/02/02 09:03:53;;;;;;;4.57;1.33;;;9.40;99.90;;;;;;6220539;23;20334;-67
2023/02/02 09:06:20;;;;;;;8.32;1.90;;;9.40;99.90;;;;;;6218420;23;20005;-67
2023/02/02 09:08:45;;;;;;;4.32;1.23;;;9.40;99.90;;;;;;6220478;23;20015;-67
2023/02/02 09:11:18;;;;;;;6.35;1.85;;;9.40;99.90;;;;;;6220082;23;20001;-67
2023/02/02 09:13:46;;;;;;;5.40;1.77;;;9.50;99.90;;;;;;6218285;23;20009;-67
2023/02/02 09:16:14;;;;;;;5.32;1.25;;;9.50;99.90;;;;;;6220329;23;20007;-67
2023/02/02 09:18:41;;;;;;;5.55;1.40;;;9.50;99.90;;;;;;6220246;23;20008;-67
2023/02/02 09:21:09;;;;;;;8.75;1.85;;;9.50;99.90;;;;;;6220147;23;20083;-67
2023/02/02 09:23:37;;;;;;;5.82;1.90;;;9.50;99.90;;;;;;6220086;23;20008;-68
2023/02/02 09:26:10;;;;;;;4.45;1.70;;;9.60;99.90;;;;;;6218520;23;20075;-71
2023/02/02 09:28:37;;;;;;;5.70;1.75;;;9.60;99.90;;;;;;6219823;23;20001;-69
2023/02/02 09:31:03;;;;;;;3.65;1.25;;;9.60;99.90;;;;;;6219146;23;20064;-70
2023/02/02 09:33:28;;;;;;;5.70;1.27;;;9.60;99.90;;;;;;6218277;23;20079;-69
2023/02/02 09:35:54;;;;;;;4.70;1.67;;;9.60;99.90;;;;;;6220262;23;20008;-69
2023/02/02 09:38:20;;;;;;;2.58;1.20;;;9.60;99.90;;;;;;6222401;23;20008;-69
2023/02/02 09:40:45;;;;;;;3.40;1.13;;;9.60;99.90;;;;;;6221852;23;20004;-69
2023/02/02 09:43:22;;;;;;;2.97;1.05;;;9.70;99.90;;;;;;6221685;23;20004;-68
2023/02/02 09:46:00;;;;;;;5.95;1.38;;;9.70;99.90;;;;;;6219756;23;20005;-69
2023/02/02 09:49:00;;;;;;;3.80;1.38;;;9.70;99.90;;;;;;6221974;23;20004;-68
2023/02/02 09:51:31;;;;;;;5.20;1.67;;;9.70;99.90;;;;;;6208159;23;20315;-68
2023/02/02 09:54:08;;;;;;;3.90;1.90;;;9.80;99.90;;;;;;6222008;23;20007;-68
2023/02/02 09:56:40;;;;;;;7.78;1.90;;;9.80;99.90;;;;;;6221688;23;20079;-68
2023/02/02 09:59:15;;;;;;;7.63;1.83;;;9.70;99.90;;;;;;6221830;23;20080;-68
2023/02/02 10:01:44;;;;;;;4.65;1.55;;;9.80;99.90;;;;;;6221459;23;20032;-69
2023/02/02 10:04:21;;;;;;;3.33;1.30;;;9.80;99.90;;;;;;6222064;23;20004;-69
2023/02/02 10:06:59;;;;;;;4.43;1.40;;;9.80;99.90;;;;;;6219796;23;20060;-69
2023/02/02 10:09:52;;;;;;;5.28;1.52;;;9.80;99.90;;;;;;6219822;23;20012;-68
2023/02/02 10:12:53;;;;;;;4.90;1.30;;;9.80;99.90;;;;;;6220969;23;20419;-69
2023/02/02 10:15:19;;;;;;;6.60;1.73;;;9.90;99.90;;;;;;6159261;23;20005;-68
2023/02/02 10:17:48;;;;;;;5.03;1.45;;;9.90;99.90;;;;;;6226426;23;20008;-68
2023/02/02 10:20:34;;;;;;;3.67;1.20;;;9.90;99.90;;;;;;6221740;23;20051;-68
2023/02/02 10:23:28;;;;;;;5.07;1.30;;;10.00;99.90;;;;;;6221198;23;20000;-68
2023/02/02 10:25:56;;;;;;;4.25;1.20;;;10.10;99.90;;;;;;6220343;23;20425;-68
2023/02/02 10:28:37;;;;;;;4.28;1.33;;;10.10;99.90;;;;;;6219750;23;20024;-69
2023/02/02 10:31:02;;;;;;;2.50;1.20;;;10.10;99.90;;;;;;6221198;23;20020;-68
2023/02/02 10:33:38;;;;;;;2.72;1.13;;;10.20;99.90;;;;;;6219180;23;20000;-68
2023/02/02 10:36:26;;;;;;;4.20;1.35;;;10.30;99.90;;;;;;6219499;23;20012;-69
2023/02/02 10:39:11;;;;;;;6.05;1.63;;;10.30;99.90;;;;;;6221622;23;20028;-68
2023/02/02 10:42:04;;;;;;;5.57;1.45;;;10.40;99.90;;;;;;6221206;23;20010;-68
2023/02/02 10:44:38;;;;;;;3.78;1.55;;;10.40;99.90;;;;;;6221538;23;20012;-68
2023/02/02 10:47:09;;;;;;;3.70;1.10;;;10.40;99.90;;;;;;6220973;23;20008;-69
2023/02/02 10:49:39;;;;;;;4.78;1.48;;;10.40;99.90;;;;;;6219491;23;20330;-70
2023/02/02 10:52:17;;;;;;;4.45;1.33;;;10.40;99.90;;;;;;6221221;23;20031;-70
2023/02/02 10:55:00;;;;;;;5.32;1.30;;;10.40;99.90;;;;;;6221168;23;20338;-70
2023/02/02 10:57:42;;;;;;;3.63;1.35;;;10.40;99.90;;;;;;6219110;23;20370;-70
2023/02/02 11:00:18;;;;;;;3.10;1.10;;;10.40;99.90;;;;;;6221712;23;20008;-70
2023/02/02 11:02:46;;;;;;;3.45;1.13;;;10.40;99.90;;;;;;6221084;23;20104;-70
2023/02/02 11:08:23;;;;;;;4.40;1.00;;;10.50;99.90;;;;;;6220817;23;20023;-70
2023/02/02 11:10:52;;;;;;;2.53;1.15;;;10.50;99.90;;;;;;6221533;23;20430;-70
2023/02/02 11:13:32;;;;;;;3.90;1.10;;;10.50;99.90;;;;;;6220562;23;20027;-70
2023/02/02 11:16:13;;;;;;;4.13;1.13;;;10.60;99.90;;;;;;6221337;23;20001;-70
2023/02/02 11:18:40;;;;;;;2.50;0.90;;;10.60;99.90;;;;;;6220746;23;20460;-70
2023/02/02 11:21:20;;;;;;;3.53;1.17;;;10.60;99.90;;;;;;6221055;23;20456;-70
2023/02/02 11:24:02;;;;;;;2.38;0.90;;;10.60;99.90;;;;;;6221165;23;20495;-70
2023/02/02 11:27:01;;;;;;;4.10;1.20;;;10.70;99.90;;;;;;6220783;23;20005;-70
2023/02/02 11:29:32;;;;;;;3.58;0.90;;;10.80;99.90;;;;;;6187149;23;20011;-69
2023/02/02 11:32:16;;;;;;;3.17;0.90;;;10.80;99.90;;;;;;6220172;23;20468;-70
2023/02/02 11:34:42;;;;;;;1.95;0.70;;;10.70;99.90;;;;;;6219467;23;20127;-70
2023/02/02 11:37:21;;;;;;;4.13;1.23;;;10.80;99.90;;;;;;6220932;23;19997;-70
2023/02/02 11:39:46;;;;;;;2.45;0.77;;;10.80;99.90;;;;;;6221130;23;20001;-70
2023/02/02 11:42:21;;;;;;;2.50;0.90;;;10.80;99.90;;;;;;6218880;23;20399;-70
2023/02/02 11:44:52;;;;;;;4.03;1.38;;;10.90;99.90;;;;;;6219101;23;20167;-70
2023/02/02 11:47:23;;;;;;;2.67;0.80;;;10.90;99.90;;;;;;6220623;23;19997;-69
2023/02/02 11:49:51;;;;;;;2.08;0.70;;;11.00;99.90;;;;;;6220851;23;20026;-70
2023/02/02 11:52:22;;;;;;;2.47;0.80;;;11.10;99.90;;;;;;6220911;23;20430;-70
2023/02/02 11:55:00;;;;;;;3.42;1.00;;;11.10;99.90;;;;;;6220848;23;20011;-70
2023/02/02 11:57:27;;;;;;;2.42;0.77;;;11.00;99.90;;;;;;6220355;23;20334;-70
2023/02/02 12:00:18;;;;;;;1.92;0.80;;;11.00;99.90;;;;;;6220351;23;20004;-70
2023/02/02 12:02:46;;;;;;;4.85;1.17;;;10.90;99.90;;;;;;6212860;23;20058;-69
2023/02/02 12:05:18;;;;;;;3.20;1.00;;;10.90;99.90;;;;;;6220674;23;20012;-70
2023/02/02 12:07:44;;;;;;;3.97;0.90;;;10.90;99.90;;;;;;6218939;23;20004;-69
2023/02/02 12:10:18;;;;;;;5.18;1.25;;;10.90;99.90;;;;;;6220602;23;19997;-70
2023/02/02 12:13:08;;;;;;;3.25;1.00;;;10.90;99.90;;;;;;6220266;23;19997;-67
2023/02/02 12:15:37;;;;;;;3.45;1.02;;;10.90;99.90;;;;;;6219074;23;20012;-68
2023/02/02 12:18:44;;;;;;;2.15;0.88;;;10.90;99.90;;;;;;6219888;23;20438;-68
2023/02/02 12:21:55;;;;;;;3.85;1.10;;;11.10;99.90;;;;;;6220394;23;20043;-68
2023/02/02 12:24:35;;;;;;;4.40;0.90;;;11.00;99.90;;;;;;6220114;23;20426;-68
2023/02/02 12:27:09;;;;;;;2.60;1.20;;;11.10;99.90;;;;;;6218375;23;20140;-68
2023/02/02 12:30:17;;;;;;;2.25;0.95;;;11.10;99.90;;;;;;6220648;23;19997;-68
2023/02/02 12:32:57;;;;;;;2.05;1.00;;;11.10;99.90;;;;;;6220203;23;20465;-68
2023/02/02 12:35:34;;;;;;;2.15;0.90;;;11.10;99.90;;;;;;6220436;23;20009;-68
2023/02/02 12:38:28;;;;;;;3.60;1.20;;;11.30;99.90;;;;;;6218473;23;20024;-68
2023/02/02 12:41:16;;;;;;;5.70;1.50;;;11.30;99.90;;;;;;6220330;23;20015;-68
2023/02/02 12:43:46;;;;;;;4.15;1.40;;;11.40;99.90;;;;;;6218209;23;20009;-69
2023/02/02 12:46:37;;;;;;;2.70;1.20;;;11.40;99.90;;;;;;6220165;23;20008;-69
2023/02/02 12:49:38;;;;;;;3.22;0.93;;;11.30;99.90;;;;;;6220122;23;20003;-69
2023/02/02 12:52:58;;;;;;;2.55;1.10;;;11.20;99.90;;;;;;6220141;23;20000;-72
2023/02/02 12:55:34;;;;;;;2.47;0.75;;;11.10;99.90;;;;;;6157987;23;20006;-69
2023/02/02 12:58:25;;;;;;;2.35;0.88;;;11.20;99.90;;;;;;6157101;23;20550;-70
2023/02/02 13:01:02;;;;;;;2.22;0.75;;;11.20;99.20;;;;;;6208856;23;20004;-69
2023/02/02 13:03:54;;;;;;;2.67;0.80;;;11.20;98.90;;;;;;6219892;23;20008;-69
2023/02/02 13:06:44;;;;;;;3.47;0.80;;;11.20;99.10;;;;;;6220153;23;20395;-70
2023/02/02 13:09:32;;;;;;;2.15;0.63;;;11.20;99.80;;;;;;6218136;23;20011;-70
2023/02/02 13:12:13;;;;;;;1.77;0.50;;;11.20;99.10;;;;;;6222579;23;20050;-70
2023/02/02 13:14:53;;;;;;;1.50;0.68;;;11.20;97.00;;;;;;6223156;23;20071;-68
2023/02/02 13:17:28;;;;;;;3.10;0.55;;;11.20;99.10;;;;;;6221738;23;20001;-68
2023/02/02 13:19:58;;;;;;;3.92;0.60;;;11.30;99.60;;;;;;6223242;23;19996;-69
2023/02/02 13:22:29;;;;;;;1.83;0.50;;;11.30;98.50;;;;;;6223570;23;20001;-69
2023/02/02 13:24:59;;;;;;;3.13;0.68;;;11.30;97.60;;;;;;6223031;23;20075;-69
2023/02/02 13:27:26;;;;;;;2.70;0.55;;;11.40;98.30;;;;;;6221557;23;20008;-69